sensor_id;sensor_type;location;lat;lon;timestamp;P1;durP1;ratioP1;P2;durP2;ratioP2
757;SDS011;363;48.764;9.172;2023-10-09T00:02:22;13.80;;;4.60;;
757;SDS011;363;48.764;9.172;2023-10-09T00:04:48;14.57;;;4.70;;
757;SDS011;363;48.764;9.172;2023-10-09T00:07:16;10.93;;;4.53;;
757;SDS011;363;48.764;9.172;2023-10-09T00:09:42;8.48;;;4.75;;
757;SDS011;363;48.764;9.172;2023-10-09T00:12:13;13.60;;;5.10;;
757;SDS011;363;48.764;9.172;2023-10-09T00:14:47;13.00;;;5.30;;
757;SDS011;363;48.764;9.172;2023-10-09T00:17:16;15.90;;;5.00;;
757;SDS011;363;48.764;9.172;2023-10-09T00:19:42;8.80;;;4.95;;
757;SDS011;363;48.764;9.172;2023-10-09T00:22:16;9.85;;;4.85;;
757;SDS011;363;48.764;9.172;2023-10-09T00:24:55;9.25;;;5.40;;
757;SDS011;363;48.764;9.172;2023-10-09T00:27:41;12.23;;;4.88;;
757;SDS011;363;48.764;9.172;2023-10-09T00:30:11;7.50;;;3.83;;
757;SDS011;363;48.764;9.172;2023-10-09T00:32:43;10.25;;;4.78;;
757;SDS011;363;48.764;9.172;2023-10-09T00:35:30;9.85;;;4.20;;
757;SDS011;363;48.764;9.172;2023-10-09T00:38:01;11.52;;;5.18;;
757;SDS011;363;48.764;9.172;2023-10-09T00:40:51;10.68;;;5.22;;
757;SDS011;363;48.764;9.172;2023-10-09T00:43:29;9.73;;;4.65;;
757;SDS011;363;48.764;9.172;2023-10-09T00:45:56;11.70;;;4.73;;
757;SDS011;363;48.764;9.172;2023-10-09T00:48:42;14.10;;;4.90;;
757;SDS011;363;48.764;9.172;2023-10-09T00:51:12;8.10;;;4.32;;
757;SDS011;363;48.764;9.172;2023-10-09T00:53:55;8.55;;;4.53;;
757;SDS011;363;48.764;9.172;2023-10-09T00:56:31;9.30;;;4.75;;
757;SDS011;363;48.764;9.172;2023-10-09T00:59:04;12.20;;;5.68;;
757;SDS011;363;48.764;9.172;2023-10-09T01:01:34;12.95;;;4.93;;
757;SDS011;363;48.764;9.172;2023-10-09T01:04:04;12.75;;;6.38;;
757;SDS011;363;48.764;9.172;2023-10-09T01:06:38;8.60;;;4.95;;
757;SDS011;363;48.764;9.172;2023-10-09T01:09:13;10.95;;;4.57;;
757;SDS011;363;48.764;9.172;2023-10-09T01:11:40;9.38;;;5.38;;
757;SDS011;363;48.764;9.172;2023-10-09T01:14:35;9.77;;;4.78;;
757;SDS011;363;48.764;9.172;2023-10-09T01:17:02;14.02;;;5.70;;
757;SDS011;363;48.764;9.172;2023-10-09T01:19:34;10.77;;;4.40;;
757;SDS011;363;48.764;9.172;2023-10-09T01:21:59;10.20;;;4.77;;
757;SDS011;363;48.764;9.172;2023-10-09T01:24:29;12.57;;;5.82;;
757;SDS011;363;48.764;9.172;2023-10-09T01:26:59;9.70;;;5.60;;
757;SDS011;363;48.764;9.172;2023-10-09T01:29:24;10.07;;;4.67;;
757;SDS011;363;48.764;9.172;2023-10-09T01:31:55;11.25;;;4.80;;
757;SDS011;363;48.764;9.172;2023-10-09T01:36:57;9.20;;;4.80;;
757;SDS011;363;48.764;9.172;2023-10-09T01:39:25;12.15;;;4.25;;
757;SDS011;363;48.764;9.172;2023-10-09T01:42:05;12.38;;;4.60;;
757;SDS011;363;48.764;9.172;2023-10-09T01:44:31;11.40;;;4.83;;
757;SDS011;363;48.764;9.172;2023-10-09T01:47:03;12.20;;;4.57;;
757;SDS011;363;48.764;9.172;2023-10-09T01:49:36;11.93;;;4.28;;
757;SDS011;363;48.764;9.172;2023-10-09T01:52:06;9.90;;;4.45;;
757;SDS011;363;48.764;9.172;2023-10-09T01:54:37;14.65;;;5.43;;
757;SDS011;363;48.764;9.172;2023-10-09T01:57:08;8.50;;;4.97;;
757;SDS011;363;48.764;9.172;2023-10-09T01:59:40;10.98;;;4.63;;
757;SDS011;363;48.764;9.172;2023-10-09T02:02:12;11.20;;;4.70;;
757;SDS011;363;48.764;9.172;2023-10-09T02:04:53;9.45;;;4.28;;
757;SDS011;363;48.764;9.172;2023-10-09T02:07:49;11.68;;;5.28;;
757;SDS011;363;48.764;9.172;2023-10-09T02:10:21;21.48;;;5.00;;
757;SDS011;363;48.764;9.172;2023-10-09T02:12:52;16.50;;;4.75;;
757;SDS011;363;48.764;9.172;2023-10-09T02:15:22;12.98;;;4.20;;
757;SDS011;363;48.764;9.172;2023-10-09T02:18:16;12.95;;;4.55;;
757;SDS011;363;48.764;9.172;2023-10-09T02:23:37;12.50;;;4.60;;
757;SDS011;363;48.764;9.172;2023-10-09T02:26:09;9.10;;;4.70;;
757;SDS011;363;48.764;9.172;2023-10-09T02:28:42;8.93;;;3.90;;
757;SDS011;363;48.764;9.172;2023-10-09T02:31:12;9.85;;;4.68;;
757;SDS011;363;48.764;9.172;2023-10-09T02:33:38;12.43;;;5.38;;
757;SDS011;363;48.764;9.172;2023-10-09T02:36:04;9.63;;;4.78;;
757;SDS011;363;48.764;9.172;2023-10-09T02:38:31;13.80;;;4.85;;
757;SDS011;363;48.764;9.172;2023-10-09T02:41:03;13.63;;;4.80;;
757;SDS011;363;48.764;9.172;2023-10-09T02:43:29;10.40;;;4.50;;
757;SDS011;363;48.764;9.172;2023-10-09T02:46:12;7.75;;;3.47;;
757;SDS011;363;48.764;9.172;2023-10-09T02:48:58;10.43;;;4.03;;
757;SDS011;363;48.764;9.172;2023-10-09T02:51:25;16.30;;;5.33;;
757;SDS011;363;48.764;9.172;2023-10-09T02:53:51;13.07;;;5.20;;
757;SDS011;363;48.764;9.172;2023-10-09T02:56:17;11.60;;;4.47;;
757;SDS011;363;48.764;9.172;2023-10-09T02:58:50;14.15;;;4.57;;
757;SDS011;363;48.764;9.172;2023-10-09T03:01:16;13.23;;;4.85;;
757;SDS011;363;48.764;9.172;2023-10-09T03:03:41;12.10;;;4.53;;
757;SDS011;363;48.764;9.172;2023-10-09T03:06:12;14.05;;;4.80;;
757;SDS011;363;48.764;9.172;2023-10-09T03:08:39;10.50;;;4.97;;
757;SDS011;363;48.764;9.172;2023-10-09T03:11:08;10.38;;;5.65;;
757;SDS011;363;48.764;9.172;2023-10-09T03:13:40;9.43;;;4.68;;
757;SDS011;363;48.764;9.172;2023-10-09T03:16:09;11.88;;;4.57;;
757;SDS011;363;48.764;9.172;2023-10-09T03:18:44;16.40;;;4.78;;
757;SDS011;363;48.764;9.172;2023-10-09T03:21:11;15.57;;;4.38;;
757;SDS011;363;48.764;9.172;2023-10-09T03:23:37;12.43;;;3.97;;
757;SDS011;363;48.764;9.172;2023-10-09T03:26:03;10.57;;;3.93;;
757;SDS011;363;48.764;9.172;2023-10-09T03:28:29;13.63;;;5.53;;
757;SDS011;363;48.764;9.172;2023-10-09T03:30:55;10.90;;;5.03;;
757;SDS011;363;48.764;9.172;2023-10-09T03:33:24;12.23;;;4.68;;
757;SDS011;363;48.764;9.172;2023-10-09T03:35:50;9.27;;;3.97;;
757;SDS011;363;48.764;9.172;2023-10-09T03:38:15;10.63;;;4.60;;
757;SDS011;363;48.764;9.172;2023-10-09T03:40:43;7.72;;;3.53;;
757;SDS011;363;48.764;9.172;2023-10-09T03:43:13;12.70;;;4.15;;
757;SDS011;363;48.764;9.172;2023-10-09T03:45:39;9.95;;;4.82;;
757;SDS011;363;48.764;9.172;2023-10-09T03:48:14;8.52;;;3.65;;
757;SDS011;363;48.764;9.172;2023-10-09T03:50:46;9.98;;;4.55;;
757;SDS011;363;48.764;9.172;2023-10-09T03:53:12;7.82;;;4.20;;
757;SDS011;363;48.764;9.172;2023-10-09T03:55:39;12.25;;;4.15;;
757;SDS011;363;48.764;9.172;2023-10-09T03:58:08;11.88;;;3.92;;
757;SDS011;363;48.764;9.172;2023-10-09T04:00:37;12.98;;;4.95;;
757;SDS011;363;48.764;9.172;2023-10-09T04:03:14;9.73;;;4.53;;
757;SDS011;363;48.764;9.172;2023-10-09T04:05:40;11.52;;;4.15;;
757;SDS011;363;48.764;9.172;2023-10-09T04:08:11;18.17;;;4.93;;
757;SDS011;363;48.764;9.172;2023-10-09T04:10:46;14.30;;;4.25;;
757;SDS011;363;48.764;9.172;2023-10-09T04:13:18;11.07;;;4.47;;
757;SDS011;363;48.764;9.172;2023-10-09T04:15:48;8.68;;;4.15;;
757;SDS011;363;48.764;9.172;2023-10-09T04:18:15;10.68;;;4.55;;
757;SDS011;363;48.764;9.172;2023-10-09T04:20:41;9.50;;;5.10;;
757;SDS011;363;48.764;9.172;2023-10-09T04:23:10;11.75;;;4.85;;
757;SDS011;363;48.764;9.172;2023-10-09T04:25:41;15.73;;;4.80;;
757;SDS011;363;48.764;9.172;2023-10-09T04:28:07;9.85;;;4.43;;
757;SDS011;363;48.764;9.172;2023-10-09T04:30:40;13.98;;;5.28;;
757;SDS011;363;48.764;9.172;2023-10-09T04:33:11;11.50;;;4.95;;
757;SDS011;363;48.764;9.172;2023-10-09T04:35:54;12.70;;;6.22;;
757;SDS011;363;48.764;9.172;2023-10-09T04:38:39;9.88;;;4.35;;
757;SDS011;363;48.764;9.172;2023-10-09T04:41:17;10.27;;;4.32;;
757;SDS011;363;48.764;9.172;2023-10-09T04:43:52;11.85;;;3.92;;
757;SDS011;363;48.764;9.172;2023-10-09T04:46:28;9.93;;;4.93;;
757;SDS011;363;48.764;9.172;2023-10-09T04:49:12;7.20;;;3.67;;
757;SDS011;363;48.764;9.172;2023-10-09T04:52:00;11.70;;;4.80;;
757;SDS011;363;48.764;9.172;2023-10-09T04:54:33;12.98;;;4.53;;
757;SDS011;363;48.764;9.172;2023-10-09T04:57:04;12.95;;;4.40;;
757;SDS011;363;48.764;9.172;2023-10-09T04:59:42;8.73;;;4.60;;
757;SDS011;363;48.764;9.172;2023-10-09T05:02:12;8.65;;;4.78;;
757;SDS011;363;48.764;9.172;2023-10-09T05:04:45;12.43;;;4.20;;
757;SDS011;363;48.764;9.172;2023-10-09T05:07:17;16.50;;;4.65;;
757;SDS011;363;48.764;9.172;2023-10-09T05:09:48;12.00;;;4.50;;
757;SDS011;363;48.764;9.172;2023-10-09T05:12:23;10.68;;;4.20;;
757;SDS011;363;48.764;9.172;2023-10-09T05:14:53;8.18;;;4.63;;
757;SDS011;363;48.764;9.172;2023-10-09T05:17:33;13.93;;;5.30;;
757;SDS011;363;48.764;9.172;2023-10-09T05:20:01;10.32;;;4.20;;
757;SDS011;363;48.764;9.172;2023-10-09T05:22:46;12.40;;;4.97;;
757;SDS011;363;48.764;9.172;2023-10-09T05:25:37;11.65;;;4.40;;
757;SDS011;363;48.764;9.172;2023-10-09T05:28:19;7.18;;;4.38;;
757;SDS011;363;48.764;9.172;2023-10-09T05:30:56;11.60;;;4.35;;
757;SDS011;363;48.764;9.172;2023-10-09T05:33:37;15.85;;;5.00;;
757;SDS011;363;48.764;9.172;2023-10-09T05:36:04;12.63;;;5.57;;
757;SDS011;363;48.764;9.172;2023-10-09T05:38:51;13.63;;;4.40;;
757;SDS011;363;48.764;9.172;2023-10-09T05:41:44;14.05;;;5.00;;
757;SDS011;363;48.764;9.172;2023-10-09T05:44:17;8.10;;;4.18;;
757;SDS011;363;48.764;9.172;2023-10-09T05:47:01;11.77;;;5.20;;
757;SDS011;363;48.764;9.172;2023-10-09T05:49:46;12.15;;;4.88;;
757;SDS011;363;48.764;9.172;2023-10-09T05:52:12;10.73;;;4.83;;
757;SDS011;363;48.764;9.172;2023-10-09T05:54:56;18.73;;;5.43;;
757;SDS011;363;48.764;9.172;2023-10-09T05:57:40;12.32;;;4.60;;
757;SDS011;363;48.764;9.172;2023-10-09T06:00:29;10.90;;;5.28;;
757;SDS011;363;48.764;9.172;2023-10-09T06:03:13;12.77;;;4.70;;
757;SDS011;363;48.764;9.172;2023-10-09T06:05:45;11.57;;;5.13;;
757;SDS011;363;48.764;9.172;2023-10-09T06:08:27;13.80;;;5.05;;
757;SDS011;363;48.764;9.172;2023-10-09T06:11:13;10.10;;;4.40;;
757;SDS011;363;48.764;9.172;2023-10-09T06:13:58;11.85;;;4.82;;
757;SDS011;363;48.764;9.172;2023-10-09T06:16:40;9.27;;;3.85;;
757;SDS011;363;48.764;9.172;2023-10-09T06:19:08;12.55;;;4.45;;
757;SDS011;363;48.764;9.172;2023-10-09T06:21:41;13.57;;;4.05;;
757;SDS011;363;48.764;9.172;2023-10-09T06:26:46;12.63;;;4.25;;
757;SDS011;363;48.764;9.172;2023-10-09T06:29:24;7.53;;;4.43;;
757;SDS011;363;48.764;9.172;2023-10-09T06:32:09;11.48;;;4.90;;
757;SDS011;363;48.764;9.172;2023-10-09T06:34:59;9.55;;;4.43;;
757;SDS011;363;48.764;9.172;2023-10-09T06:37:50;13.68;;;4.85;;
757;SDS011;363;48.764;9.172;2023-10-09T06:40:28;14.00;;;4.40;;
757;SDS011;363;48.764;9.172;2023-10-09T06:43:22;13.57;;;4.35;;
757;SDS011;363;48.764;9.172;2023-10-09T06:45:48;11.55;;;4.10;;
757;SDS011;363;48.764;9.172;2023-10-09T06:48:44;11.52;;;5.50;;
757;SDS011;363;48.764;9.172;2023-10-09T06:51:11;15.07;;;6.75;;
757;SDS011;363;48.764;9.172;2023-10-09T06:53:58;12.75;;;4.75;;
757;SDS011;363;48.764;9.172;2023-10-09T06:56:29;13.00;;;4.13;;
757;SDS011;363;48.764;9.172;2023-10-09T06:58:58;12.57;;;5.20;;
757;SDS011;363;48.764;9.172;2023-10-09T07:01:47;7.85;;;4.38;;
757;SDS011;363;48.764;9.172;2023-10-09T07:04:36;9.65;;;4.50;;
757;SDS011;363;48.764;9.172;2023-10-09T07:07:02;8.43;;;4.30;;
757;SDS011;363;48.764;9.172;2023-10-09T07:09:34;12.57;;;4.28;;
757;SDS011;363;48.764;9.172;2023-10-09T07:12:29;10.77;;;4.40;;
757;SDS011;363;48.764;9.172;2023-10-09T07:14:58;13.25;;;6.30;;
757;SDS011;363;48.764;9.172;2023-10-09T07:17:26;17.90;;;5.13;;
757;SDS011;363;48.764;9.172;2023-10-09T07:20:01;15.35;;;5.63;;
757;SDS011;363;48.764;9.172;2023-10-09T07:22:39;11.35;;;4.18;;
757;SDS011;363;48.764;9.172;2023-10-09T07:25:18;12.95;;;4.50;;
757;SDS011;363;48.764;9.172;2023-10-09T07:28:05;12.65;;;5.15;;
757;SDS011;363;48.764;9.172;2023-10-09T07:30:43;14.55;;;5.22;;
757;SDS011;363;48.764;9.172;2023-10-09T07:33:12;11.13;;;4.20;;
757;SDS011;363;48.764;9.172;2023-10-09T07:35:39;10.13;;;4.20;;
757;SDS011;363;48.764;9.172;2023-10-09T07:38:16;11.40;;;4.70;;
757;SDS011;363;48.764;9.172;2023-10-09T07:40:46;12.50;;;4.05;;
757;SDS011;363;48.764;9.172;2023-10-09T07:43:28;12.45;;;4.57;;
757;SDS011;363;48.764;9.172;2023-10-09T07:46:07;8.50;;;4.13;;
757;SDS011;363;48.764;9.172;2023-10-09T07:48:34;11.02;;;4.18;;
757;SDS011;363;48.764;9.172;2023-10-09T07:51:18;9.43;;;4.07;;
757;SDS011;363;48.764;9.172;2023-10-09T07:53:48;10.73;;;3.95;;
757;SDS011;363;48.764;9.172;2023-10-09T07:56:35;14.77;;;5.20;;
757;SDS011;363;48.764;9.172;2023-10-09T07:59:11;13.93;;;5.22;;
757;SDS011;363;48.764;9.172;2023-10-09T08:01:39;11.25;;;4.93;;
757;SDS011;363;48.764;9.172;2023-10-09T08:04:21;12.20;;;5.13;;
757;SDS011;363;48.764;9.172;2023-10-09T08:09:32;10.52;;;4.50;;
757;SDS011;363;48.764;9.172;2023-10-09T08:12:16;11.05;;;4.68;;
757;SDS011;363;48.764;9.172;2023-10-09T08:15:05;14.13;;;5.25;;
757;SDS011;363;48.764;9.172;2023-10-09T08:17:44;13.48;;;4.95;;
757;SDS011;363;48.764;9.172;2023-10-09T08:20:24;11.10;;;4.55;;
757;SDS011;363;48.764;9.172;2023-10-09T08:23:01;11.80;;;4.97;;
757;SDS011;363;48.764;9.172;2023-10-09T08:25:30;10.70;;;4.90;;
757;SDS011;363;48.764;9.172;2023-10-09T08:28:00;10.88;;;4.22;;
757;SDS011;363;48.764;9.172;2023-10-09T08:30:39;13.68;;;4.95;;
757;SDS011;363;48.764;9.172;2023-10-09T08:33:16;10.02;;;3.92;;
757;SDS011;363;48.764;9.172;2023-10-09T08:36:10;8.93;;;4.47;;
757;SDS011;363;48.764;9.172;2023-10-09T08:38:39;18.10;;;4.75;;
757;SDS011;363;48.764;9.172;2023-10-09T08:41:07;12.77;;;5.30;;
757;SDS011;363;48.764;9.172;2023-10-09T08:44:00;13.52;;;4.25;;
757;SDS011;363;48.764;9.172;2023-10-09T08:46:31;13.27;;;5.60;;
757;SDS011;363;48.764;9.172;2023-10-09T08:48:59;15.25;;;4.30;;
757;SDS011;363;48.764;9.172;2023-10-09T08:51:25;12.47;;;5.37;;
757;SDS011;363;48.764;9.172;2023-10-09T08:53:52;12.30;;;4.50;;
757;SDS011;363;48.764;9.172;2023-10-09T08:56:20;10.85;;;4.75;;
757;SDS011;363;48.764;9.172;2023-10-09T08:58:53;8.30;;;4.93;;
757;SDS011;363;48.764;9.172;2023-10-09T09:01:20;9.48;;;4.82;;
757;SDS011;363;48.764;9.172;2023-10-09T09:03:49;13.35;;;4.88;;
757;SDS011;363;48.764;9.172;2023-10-09T09:06:15;10.57;;;4.25;;
757;SDS011;363;48.764;9.172;2023-10-09T09:08:44;10.30;;;4.38;;
757;SDS011;363;48.764;9.172;2023-10-09T09:11:12;11.57;;;4.80;;
757;SDS011;363;48.764;9.172;2023-10-09T09:13:59;11.87;;;3.77;;
757;SDS011;363;48.764;9.172;2023-10-09T09:16:43;10.67;;;4.93;;
757;SDS011;363;48.764;9.172;2023-10-09T09:19:13;15.67;;;4.83;;
757;SDS011;363;48.764;9.172;2023-10-09T09:21:47;10.20;;;5.00;;
757;SDS011;363;48.764;9.172;2023-10-09T09:24:19;21.00;;;6.57;;
757;SDS011;363;48.764;9.172;2023-10-09T09:26:48;13.52;;;4.40;;
757;SDS011;363;48.764;9.172;2023-10-09T09:29:24;13.67;;;6.30;;
757;SDS011;363;48.764;9.172;2023-10-09T09:32:03;12.23;;;4.40;;
757;SDS011;363;48.764;9.172;2023-10-09T09:34:52;8.83;;;4.53;;
757;SDS011;363;48.764;9.172;2023-10-09T09:37:33;12.67;;;6.10;;
757;SDS011;363;48.764;9.172;2023-10-09T09:40:09;14.70;;;4.67;;
757;SDS011;363;48.764;9.172;2023-10-09T09:42:41;14.07;;;5.13;;
757;SDS011;363;48.764;9.172;2023-10-09T09:45:13;13.30;;;5.23;;
757;SDS011;363;48.764;9.172;2023-10-09T09:47:40;14.33;;;4.80;;
757;SDS011;363;48.764;9.172;2023-10-09T09:50:12;14.37;;;4.87;;
757;SDS011;363;48.764;9.172;2023-10-09T09:52:49;15.60;;;5.77;;
757;SDS011;363;48.764;9.172;2023-10-09T09:55:20;11.90;;;4.67;;
757;SDS011;363;48.764;9.172;2023-10-09T09:57:58;10.30;;;5.10;;
757;SDS011;363;48.764;9.172;2023-10-09T10:00:25;14.40;;;4.93;;
757;SDS011;363;48.764;9.172;2023-10-09T10:03:14;10.17;;;5.40;;
757;SDS011;363;48.764;9.172;2023-10-09T10:05:43;13.20;;;6.23;;
757;SDS011;363;48.764;9.172;2023-10-09T10:08:20;13.10;;;4.90;;
757;SDS011;363;48.764;9.172;2023-10-09T10:10:46;11.57;;;4.83;;
757;SDS011;363;48.764;9.172;2023-10-09T10:13:15;13.97;;;5.33;;
757;SDS011;363;48.764;9.172;2023-10-09T10:18:33;12.00;;;5.97;;
757;SDS011;363;48.764;9.172;2023-10-09T10:21:45;13.97;;;6.10;;
757;SDS011;363;48.764;9.172;2023-10-09T10:27:17;15.43;;;5.10;;
757;SDS011;363;48.764;9.172;2023-10-09T10:30:17;10.20;;;5.67;;
757;SDS011;363;48.764;9.172;2023-10-09T10:32:53;10.70;;;4.93;;
757;SDS011;363;48.764;9.172;2023-10-09T10:35:23;12.70;;;5.30;;
757;SDS011;363;48.764;9.172;2023-10-09T10:41:12;14.93;;;5.43;;
757;SDS011;363;48.764;9.172;2023-10-09T10:43:42;17.37;;;5.10;;
757;SDS011;363;48.764;9.172;2023-10-09T10:46:20;16.30;;;6.00;;
757;SDS011;363;48.764;9.172;2023-10-09T10:49:05;16.53;;;4.83;;
757;SDS011;363;48.764;9.172;2023-10-09T10:51:37;16.53;;;5.67;;
757;SDS011;363;48.764;9.172;2023-10-09T10:54:04;17.03;;;5.57;;
757;SDS011;363;48.764;9.172;2023-10-09T10:56:49;15.17;;;6.13;;
757;SDS011;363;48.764;9.172;2023-10-09T10:59:18;11.70;;;5.30;;
757;SDS011;363;48.764;9.172;2023-10-09T11:01:51;10.37;;;4.70;;
757;SDS011;363;48.764;9.172;2023-10-09T11:04:27;12.80;;;5.33;;
757;SDS011;363;48.764;9.172;2023-10-09T11:07:09;12.97;;;5.00;;
757;SDS011;363;48.764;9.172;2023-10-09T11:15:06;10.93;;;4.73;;
757;SDS011;363;48.764;9.172;2023-10-09T11:18:02;9.90;;;5.00;;
757;SDS011;363;48.764;9.172;2023-10-09T11:20:41;16.90;;;6.47;;
757;SDS011;363;48.764;9.172;2023-10-09T11:23:21;14.63;;;6.03;;
757;SDS011;363;48.764;9.172;2023-10-09T11:26:14;13.60;;;4.90;;
757;SDS011;363;48.764;9.172;2023-10-09T11:32:03;13.57;;;4.90;;
757;SDS011;363;48.764;9.172;2023-10-09T11:34:30;11.60;;;4.50;;
757;SDS011;363;48.764;9.172;2023-10-09T11:36:59;11.60;;;5.50;;
757;SDS011;363;48.764;9.172;2023-10-09T11:39:40;12.93;;;5.03;;
757;SDS011;363;48.764;9.172;2023-10-09T11:42:18;15.37;;;5.10;;
757;SDS011;363;48.764;9.172;2023-10-09T11:45:01;11.57;;;5.07;;
757;SDS011;363;48.764;9.172;2023-10-09T11:47:44;11.03;;;5.00;;
757;SDS011;363;48.764;9.172;2023-10-09T11:53:08;9.13;;;4.80;;
757;SDS011;363;48.764;9.172;2023-10-09T11:55:58;11.17;;;5.17;;
757;SDS011;363;48.764;9.172;2023-10-09T11:58:25;11.10;;;6.00;;
757;SDS011;363;48.764;9.172;2023-10-09T12:00:55;9.07;;;4.70;;
757;SDS011;363;48.764;9.172;2023-10-09T12:03:23;13.07;;;5.70;;
757;SDS011;363;48.764;9.172;2023-10-09T12:05:53;10.83;;;4.93;;
757;SDS011;363;48.764;9.172;2023-10-09T12:08:37;11.13;;;6.00;;
757;SDS011;363;48.764;9.172;2023-10-09T12:11:06;12.00;;;4.50;;
757;SDS011;363;48.764;9.172;2023-10-09T12:13:36;11.57;;;5.93;;
757;SDS011;363;48.764;9.172;2023-10-09T12:16:07;11.57;;;5.23;;
757;SDS011;363;48.764;9.172;2023-10-09T12:18:35;11.40;;;4.60;;
757;SDS011;363;48.764;9.172;2023-10-09T12:21:04;14.70;;;6.93;;
757;SDS011;363;48.764;9.172;2023-10-09T12:23:30;8.10;;;5.07;;
757;SDS011;363;48.764;9.172;2023-10-09T12:26:00;11.00;;;4.77;;
757;SDS011;363;48.764;9.172;2023-10-09T12:28:29;9.27;;;5.03;;
757;SDS011;363;48.764;9.172;2023-10-09T12:30:58;6.40;;;4.73;;
757;SDS011;363;48.764;9.172;2023-10-09T12:33:28;7.70;;;4.97;;
757;SDS011;363;48.764;9.172;2023-10-09T12:35:54;9.17;;;6.00;;
757;SDS011;363;48.764;9.172;2023-10-09T12:38:27;9.40;;;6.10;;
757;SDS011;363;48.764;9.172;2023-10-09T12:41:03;10.00;;;5.43;;
757;SDS011;363;48.764;9.172;2023-10-09T12:43:34;9.83;;;6.80;;
757;SDS011;363;48.764;9.172;2023-10-09T12:46:06;7.70;;;6.10;;
757;SDS011;363;48.764;9.172;2023-10-09T12:48:32;10.47;;;5.97;;
757;SDS011;363;48.764;9.172;2023-10-09T12:50:58;9.80;;;5.97;;
757;SDS011;363;48.764;9.172;2023-10-09T12:53:33;7.73;;;4.90;;
757;SDS011;363;48.764;9.172;2023-10-09T12:55:59;9.13;;;5.10;;
757;SDS011;363;48.764;9.172;2023-10-09T12:58:24;12.27;;;6.40;;
757;SDS011;363;48.764;9.172;2023-10-09T13:00:51;9.73;;;6.10;;
757;SDS011;363;48.764;9.172;2023-10-09T13:03:17;8.83;;;5.43;;
757;SDS011;363;48.764;9.172;2023-10-09T13:05:47;7.63;;;5.23;;
757;SDS011;363;48.764;9.172;2023-10-09T13:08:21;8.20;;;5.77;;
757;SDS011;363;48.764;9.172;2023-10-09T13:10:51;8.50;;;6.20;;
757;SDS011;363;48.764;9.172;2023-10-09T13:13:26;9.40;;;6.10;;
757;SDS011;363;48.764;9.172;2023-10-09T13:16:14;10.10;;;6.13;;
757;SDS011;363;48.764;9.172;2023-10-09T13:18:50;12.77;;;6.10;;
757;SDS011;363;48.764;9.172;2023-10-09T13:21:21;12.50;;;5.73;;
757;SDS011;363;48.764;9.172;2023-10-09T13:23:57;11.67;;;6.23;;
757;SDS011;363;48.764;9.172;2023-10-09T13:26:23;7.70;;;5.50;;
757;SDS011;363;48.764;9.172;2023-10-09T13:29:01;11.80;;;7.33;;
757;SDS011;363;48.764;9.172;2023-10-09T13:31:28;11.37;;;6.33;;
757;SDS011;363;48.764;9.172;2023-10-09T13:33:57;11.83;;;7.47;;
757;SDS011;363;48.764;9.172;2023-10-09T13:36:24;10.50;;;6.53;;
757;SDS011;363;48.764;9.172;2023-10-09T13:38:59;14.27;;;7.70;;
757;SDS011;363;48.764;9.172;2023-10-09T13:41:44;12.40;;;7.03;;
757;SDS011;363;48.764;9.172;2023-10-09T13:44:12;12.33;;;6.90;;
757;SDS011;363;48.764;9.172;2023-10-09T13:46:37;9.50;;;6.07;;
757;SDS011;363;48.764;9.172;2023-10-09T13:49:09;8.57;;;5.40;;
757;SDS011;363;48.764;9.172;2023-10-09T13:51:42;7.43;;;5.73;;
757;SDS011;363;48.764;9.172;2023-10-09T13:54:11;11.57;;;6.90;;
757;SDS011;363;48.764;9.172;2023-10-09T13:56:45;8.00;;;5.50;;
757;SDS011;363;48.764;9.172;2023-10-09T13:59:18;7.03;;;5.50;;
757;SDS011;363;48.764;9.172;2023-10-09T14:01:46;9.13;;;7.23;;
757;SDS011;363;48.764;9.172;2023-10-09T14:04:14;9.63;;;6.13;;
757;SDS011;363;48.764;9.172;2023-10-09T14:06:46;10.30;;;7.37;;
757;SDS011;363;48.764;9.172;2023-10-09T14:09:12;9.43;;;6.60;;
757;SDS011;363;48.764;9.172;2023-10-09T14:11:55;9.07;;;6.70;;
757;SDS011;363;48.764;9.172;2023-10-09T14:14:35;10.67;;;5.40;;
757;SDS011;363;48.764;9.172;2023-10-09T14:17:10;7.90;;;5.73;;
757;SDS011;363;48.764;9.172;2023-10-09T14:19:39;7.87;;;5.50;;
757;SDS011;363;48.764;9.172;2023-10-09T14:22:25;10.30;;;5.33;;
757;SDS011;363;48.764;9.172;2023-10-09T14:24:51;7.03;;;5.67;;
757;SDS011;363;48.764;9.172;2023-10-09T14:27:22;7.87;;;5.40;;
757;SDS011;363;48.764;9.172;2023-10-09T14:29:51;9.67;;;5.27;;
757;SDS011;363;48.764;9.172;2023-10-09T14:32:20;8.70;;;7.13;;
757;SDS011;363;48.764;9.172;2023-10-09T14:34:53;7.60;;;5.80;;
757;SDS011;363;48.764;9.172;2023-10-09T14:37:20;8.60;;;5.73;;
757;SDS011;363;48.764;9.172;2023-10-09T14:39:46;9.03;;;6.47;;
757;SDS011;363;48.764;9.172;2023-10-09T14:42:15;6.90;;;5.50;;
757;SDS011;363;48.764;9.172;2023-10-09T14:44:41;7.23;;;4.80;;
757;SDS011;363;48.764;9.172;2023-10-09T14:47:10;6.43;;;4.93;;
757;SDS011;363;48.764;9.172;2023-10-09T14:49:36;8.50;;;5.97;;
757;SDS011;363;48.764;9.172;2023-10-09T14:52:11;8.57;;;6.90;;
757;SDS011;363;48.764;9.172;2023-10-09T14:54:41;9.60;;;6.50;;
757;SDS011;363;48.764;9.172;2023-10-09T14:57:07;8.53;;;5.87;;
757;SDS011;363;48.764;9.172;2023-10-09T14:59:33;8.77;;;6.70;;
757;SDS011;363;48.764;9.172;2023-10-09T15:01:59;10.77;;;7.87;;
757;SDS011;363;48.764;9.172;2023-10-09T15:04:25;10.60;;;7.77;;
757;SDS011;363;48.764;9.172;2023-10-09T15:06:51;9.93;;;7.57;;
757;SDS011;363;48.764;9.172;2023-10-09T15:09:17;11.83;;;8.90;;
757;SDS011;363;48.764;9.172;2023-10-09T15:11:53;9.37;;;5.93;;
757;SDS011;363;48.764;9.172;2023-10-09T15:14:19;9.17;;;6.67;;
757;SDS011;363;48.764;9.172;2023-10-09T15:16:45;7.90;;;6.20;;
757;SDS011;363;48.764;9.172;2023-10-09T15:19:11;9.57;;;7.37;;
757;SDS011;363;48.764;9.172;2023-10-09T15:21:38;8.97;;;5.87;;
757;SDS011;363;48.764;9.172;2023-10-09T15:24:13;9.03;;;5.90;;
757;SDS011;363;48.764;9.172;2023-10-09T15:26:46;9.00;;;7.33;;
757;SDS011;363;48.764;9.172;2023-10-09T15:29:17;7.10;;;5.70;;
757;SDS011;363;48.764;9.172;2023-10-09T15:31:48;7.50;;;6.40;;
757;SDS011;363;48.764;9.172;2023-10-09T15:34:15;8.07;;;6.10;;
757;SDS011;363;48.764;9.172;2023-10-09T15:36:43;9.03;;;6.37;;
757;SDS011;363;48.764;9.172;2023-10-09T15:39:12;8.00;;;6.27;;
757;SDS011;363;48.764;9.172;2023-10-09T15:41:44;8.83;;;6.10;;
757;SDS011;363;48.764;9.172;2023-10-09T15:44:11;11.40;;;7.03;;
757;SDS011;363;48.764;9.172;2023-10-09T15:46:38;9.60;;;6.40;;
757;SDS011;363;48.764;9.172;2023-10-09T15:49:04;9.53;;;6.13;;
757;SDS011;363;48.764;9.172;2023-10-09T15:51:32;8.30;;;6.50;;
757;SDS011;363;48.764;9.172;2023-10-09T15:53:58;10.10;;;6.90;;
757;SDS011;363;48.764;9.172;2023-10-09T15:56:26;10.80;;;6.20;;
757;SDS011;363;48.764;9.172;2023-10-09T15:58:52;9.00;;;6.40;;
757;SDS011;363;48.764;9.172;2023-10-09T16:01:19;9.93;;;8.07;;
757;SDS011;363;48.764;9.172;2023-10-09T16:03:45;10.93;;;6.90;;
757;SDS011;363;48.764;9.172;2023-10-09T16:06:15;11.50;;;6.20;;
757;SDS011;363;48.764;9.172;2023-10-09T16:08:42;12.07;;;6.40;;
757;SDS011;363;48.764;9.172;2023-10-09T16:11:21;9.07;;;6.30;;
757;SDS011;363;48.764;9.172;2023-10-09T16:13:53;8.67;;;6.20;;
757;SDS011;363;48.764;9.172;2023-10-09T16:16:25;11.27;;;7.13;;
757;SDS011;363;48.764;9.172;2023-10-09T16:18:51;7.67;;;6.60;;
757;SDS011;363;48.764;9.172;2023-10-09T16:21:17;11.30;;;6.77;;
757;SDS011;363;48.764;9.172;2023-10-09T16:23:50;8.17;;;6.33;;
757;SDS011;363;48.764;9.172;2023-10-09T16:26:18;10.13;;;6.50;;
757;SDS011;363;48.764;9.172;2023-10-09T16:28:44;8.57;;;5.50;;
757;SDS011;363;48.764;9.172;2023-10-09T16:31:13;8.00;;;6.47;;
757;SDS011;363;48.764;9.172;2023-10-09T16:33:43;8.57;;;6.30;;
757;SDS011;363;48.764;9.172;2023-10-09T16:36:09;7.70;;;5.40;;
757;SDS011;363;48.764;9.172;2023-10-09T16:38:35;7.70;;;5.70;;
757;SDS011;363;48.764;9.172;2023-10-09T16:41:04;11.27;;;6.60;;
757;SDS011;363;48.764;9.172;2023-10-09T16:43:34;10.43;;;6.27;;
757;SDS011;363;48.764;9.172;2023-10-09T16:46:02;13.77;;;5.90;;